createdAt,value
2022-10-04T00:01:09.266Z,0.93
2022-10-04T00:06:33.696Z,1.17
2022-10-04T00:12:00.573Z,2.05
2022-10-04T00:17:28.087Z,1.30
2022-10-04T00:23:25.241Z,0.50
2022-10-04T00:28:51.546Z,1.08
2022-10-04T00:34:47.280Z,0.85
2022-10-04T00:40:16.718Z,0.95
2022-10-04T00:45:45.963Z,3.15
2022-10-04T00:51:20.452Z,0.63
2022-10-04T00:56:49.749Z,1.13
2022-10-04T01:02:19.828Z,1.27
2022-10-04T01:07:48.219Z,0.80
2022-10-04T01:13:17.228Z,1.38
2022-10-04T01:18:43.056Z,7.38
2022-10-04T01:24:22.858Z,3.38
2022-10-04T01:29:51.697Z,0.75
2022-10-04T01:35:18.880Z,2.17
2022-10-04T01:40:49.725Z,0.73
2022-10-04T01:46:20.179Z,1.55
2022-10-04T01:51:56.506Z,0.75
2022-10-04T01:57:31.588Z,0.80
2022-10-04T02:03:01.849Z,0.70
2022-10-04T02:08:30.437Z,2.92
2022-10-04T02:13:56.854Z,3.08
2022-10-04T02:19:28.210Z,1.45
2022-10-04T02:24:58.869Z,1.38
2022-10-04T02:30:25.339Z,2.47
2022-10-04T02:35:50.427Z,1.70
2022-10-04T02:41:25.945Z,1.02
2022-10-04T02:46:57.248Z,0.80
2022-10-04T02:52:28.213Z,1.42
2022-10-04T02:57:52.661Z,2.88
2022-10-04T03:03:24.234Z,5.80
2022-10-04T03:08:52.836Z,1.50
2022-10-04T03:14:20.998Z,0.95
2022-10-04T03:19:50.044Z,3.35
2022-10-04T03:25:18.315Z,1.77
2022-10-04T03:30:45.469Z,5.85
2022-10-04T03:36:16.742Z,1.10
2022-10-04T03:41:42.196Z,1.35
2022-10-04T03:47:11.167Z,1.83
2022-10-04T03:52:38.789Z,2.95
2022-10-04T03:58:03.907Z,3.42
2022-10-04T04:03:35.918Z,2.60
2022-10-04T04:09:02.790Z,3.67
2022-10-04T04:14:29.108Z,4.43
2022-10-04T04:19:54.417Z,3.65
2022-10-04T04:25:23.614Z,3.55
2022-10-04T04:30:53.057Z,2.58
2022-10-04T04:36:18.551Z,6.70
2022-10-04T04:41:49.541Z,4.30
2022-10-04T04:47:27.303Z,5.05
2022-10-04T04:53:00.172Z,5.55
2022-10-04T04:58:33.004Z,2.80
2022-10-04T05:04:05.295Z,2.80
2022-10-04T05:09:34.489Z,8.02
2022-10-04T05:15:02.817Z,2.88
2022-10-04T05:20:28.720Z,3.63
2022-10-04T05:25:52.758Z,1.83
2022-10-04T05:31:37.029Z,2.78
2022-10-04T05:37:23.632Z,2.38
2022-10-04T05:42:48.145Z,1.65
2022-10-04T05:48:15.309Z,3.38
2022-10-04T05:53:44.245Z,2.33
2022-10-04T05:59:17.649Z,3.40
2022-10-04T06:05:00.716Z,2.40
2022-10-04T06:10:51.195Z,1.70
2022-10-04T06:22:06.724Z,4.78
2022-10-04T06:27:41.658Z,1.45
2022-10-04T06:33:30.131Z,2.75
2022-10-04T06:39:19.236Z,2.13
2022-10-04T06:45:00.727Z,2.25
2022-10-04T06:50:34.292Z,6.20
2022-10-04T06:56:33.776Z,5.22
2022-10-04T07:02:01.570Z,2.33
2022-10-04T07:07:38.080Z,2.00
2022-10-04T07:13:16.563Z,2.45
2022-10-04T07:18:48.389Z,2.03
2022-10-04T07:24:20.069Z,3.55
2022-10-04T07:29:47.916Z,1.60
2022-10-04T07:35:34.774Z,3.10
2022-10-04T07:41:10.508Z,1.67
2022-10-04T07:46:53.863Z,6.65
2022-10-04T07:52:42.949Z,2.63
2022-10-04T07:58:19.961Z,1.75
2022-10-04T08:04:00.313Z,1.55
2022-10-04T08:09:38.778Z,1.58
2022-10-04T08:15:26.768Z,5.35
2022-10-04T08:20:59.682Z,1.52
2022-10-04T08:26:55.858Z,0.88
2022-10-04T08:33:01.761Z,4.38
2022-10-04T08:38:45.110Z,2.13
2022-10-04T08:45:07.960Z,0.70
2022-10-04T08:51:02.678Z,0.88
2022-10-04T08:56:45.481Z,0.77
2022-10-04T09:02:48.000Z,0.90
2022-10-04T09:08:51.069Z,0.90
2022-10-04T09:14:46.393Z,1.17
2022-10-04T09:20:39.389Z,0.70
2022-10-04T09:26:21.074Z,0.55
2022-10-04T09:32:16.946Z,6.70
2022-10-04T09:37:59.033Z,3.70
2022-10-04T09:43:56.146Z,1.13
2022-10-04T09:49:47.954Z,0.90
2022-10-04T09:55:29.922Z,1.48
2022-10-04T10:01:03.372Z,8.55
2022-10-04T10:06:49.762Z,2.20
2022-10-04T10:12:55.635Z,3.70
2022-10-04T10:18:31.640Z,1.27
2022-10-04T10:24:27.812Z,0.65
2022-10-04T10:30:21.301Z,1.80
2022-10-04T10:36:04.318Z,5.25
2022-10-04T10:41:55.047Z,3.33
2022-10-04T10:47:35.553Z,2.47
2022-10-04T10:53:46.170Z,1.42
2022-10-04T10:59:38.800Z,1.80
2022-10-04T11:05:25.103Z,0.70
2022-10-04T11:11:07.901Z,2.80
2022-10-04T11:16:52.903Z,2.60
2022-10-04T11:23:00.174Z,5.82
2022-10-04T11:28:32.623Z,11.15
2022-10-04T11:34:37.908Z,1.13
2022-10-04T11:40:12.223Z,1.70
2022-10-04T11:45:57.244Z,1.73
2022-10-04T11:52:13.215Z,4.03
2022-10-04T11:57:44.463Z,1.10
2022-10-04T12:03:46.532Z,5.28
2022-10-04T12:09:20.715Z,2.42
2022-10-04T12:15:08.616Z,1.05
2022-10-04T12:20:59.677Z,1.15
2022-10-04T12:26:48.366Z,4.47
2022-10-04T12:32:16.481Z,2.60
2022-10-04T12:38:05.997Z,1.27
2022-10-04T12:43:38.656Z,0.70
2022-10-04T12:49:11.915Z,1.27
2022-10-04T12:54:40.339Z,1.25
2022-10-04T13:00:17.512Z,1.27
2022-10-04T13:05:51.889Z,9.52
2022-10-04T13:11:34.113Z,6.60
2022-10-04T13:17:30.827Z,3.63
2022-10-04T13:22:58.036Z,2.72
2022-10-04T13:28:31.978Z,0.70
2022-10-04T13:34:07.811Z,8.25
2022-10-04T13:39:52.382Z,1.58
2022-10-04T13:45:32.077Z,5.18
2022-10-04T13:51:15.565Z,4.93
2022-10-04T13:56:58.537Z,15.43
2022-10-04T14:02:53.328Z,3.72
2022-10-04T14:08:52.085Z,1.65
2022-10-04T14:14:54.168Z,1.60
2022-10-04T14:21:01.499Z,1.23
2022-10-04T14:26:54.813Z,6.47
2022-10-04T14:32:40.402Z,5.40
2022-10-04T14:38:31.785Z,6.85
2022-10-04T14:44:31.541Z,11.77
2022-10-04T14:50:09.630Z,2.63
2022-10-04T14:55:53.957Z,1.88
2022-10-04T15:01:23.530Z,4.15
2022-10-04T15:06:51.706Z,8.68
2022-10-04T15:12:58.106Z,9.80
2022-10-04T15:18:32.083Z,7.72
2022-10-04T15:24:01.427Z,8.82
2022-10-04T15:29:30.076Z,7.38
2022-10-04T15:35:12.302Z,8.97
2022-10-04T15:40:43.201Z,7.88
2022-10-04T15:46:34.119Z,11.52
2022-10-04T15:52:52.152Z,12.38
2022-10-04T15:58:58.743Z,4.97
2022-10-04T16:04:42.939Z,8.85
2022-10-04T16:10:20.181Z,17.40
2022-10-04T16:15:49.520Z,18.65
2022-10-04T16:21:26.548Z,17.65
2022-10-04T16:27:20.884Z,17.48
2022-10-04T16:33:05.154Z,14.55
2022-10-04T16:38:35.831Z,8.35
2022-10-04T16:44:03.940Z,8.15
2022-10-04T16:49:41.032Z,5.63
2022-10-04T16:55:31.726Z,9.63
2022-10-04T17:01:30.113Z,6.20
2022-10-04T17:06:58.609Z,5.63
2022-10-04T17:12:28.939Z,4.68
2022-10-04T17:18:00.435Z,5.63
2022-10-04T17:24:00.215Z,12.70
2022-10-04T17:29:43.455Z,10.25
2022-10-04T17:35:22.091Z,5.72
2022-10-04T17:40:59.285Z,9.57
2022-10-04T17:46:33.524Z,4.50
2022-10-04T17:52:21.039Z,6.82
2022-10-04T17:57:57.012Z,6.72
2022-10-04T18:03:26.368Z,2.45
2022-10-04T18:08:55.569Z,2.58
2022-10-04T18:14:39.955Z,3.20
2022-10-04T18:20:28.182Z,2.13
2022-10-04T18:25:58.395Z,2.25
2022-10-04T18:31:33.909Z,5.63
2022-10-04T18:37:06.921Z,7.32
2022-10-04T18:42:37.222Z,6.03
2022-10-04T18:48:14.742Z,7.18
2022-10-04T18:53:44.516Z,5.18
2022-10-04T18:59:39.472Z,6.25
2022-10-04T19:05:14.205Z,3.72
2022-10-04T19:10:44.691Z,6.50
2022-10-04T19:16:25.587Z,4.00
2022-10-04T19:21:59.930Z,6.00
2022-10-04T19:27:28.726Z,2.50
2022-10-04T19:33:03.485Z,3.28
2022-10-04T19:38:40.532Z,6.07
2022-10-04T19:44:23.257Z,2.70
2022-10-04T19:49:57.934Z,2.75
2022-10-04T19:55:28.437Z,3.85
2022-10-04T20:00:52.644Z,4.28
2022-10-04T20:06:22.618Z,3.22
2022-10-04T20:11:52.071Z,4.40
2022-10-04T20:17:33.991Z,2.42
2022-10-04T20:22:58.704Z,2.00
2022-10-04T20:28:43.645Z,2.30
2022-10-04T20:34:35.401Z,2.10
2022-10-04T20:40:00.421Z,2.67
2022-10-04T20:45:30.436Z,4.70
2022-10-04T20:50:55.863Z,3.28
2022-10-04T20:56:29.222Z,7.32
2022-10-04T21:02:05.171Z,2.15
2022-10-04T21:07:31.001Z,2.28
2022-10-04T21:12:55.517Z,3.60
2022-10-04T21:18:25.140Z,6.22
2022-10-04T21:23:49.988Z,2.88
2022-10-04T21:29:14.923Z,3.45
2022-10-04T21:34:52.906Z,3.17
2022-10-04T21:40:18.897Z,2.30
2022-10-04T21:45:43.060Z,3.92
2022-10-04T21:51:12.689Z,4.78
2022-10-04T21:56:37.546Z,2.72
2022-10-04T22:02:01.758Z,4.03
2022-10-04T22:07:27.346Z,3.75
2022-10-04T22:12:56.765Z,2.88
2022-10-04T22:18:21.033Z,4.90
2022-10-04T22:23:47.438Z,3.72
2022-10-04T22:29:14.859Z,2.22
2022-10-04T22:34:39.862Z,2.90
2022-10-04T22:40:08.095Z,3.53
2022-10-04T22:45:33.698Z,4.00
2022-10-04T22:50:59.083Z,7.43
2022-10-04T22:56:26.097Z,3.17
2022-10-04T23:01:50.520Z,2.45
2022-10-04T23:07:15.201Z,3.10
2022-10-04T23:12:41.282Z,4.72
2022-10-04T23:18:15.512Z,3.75
2022-10-04T23:23:39.467Z,4.05
2022-10-04T23:29:07.686Z,4.47
2022-10-04T23:34:35.377Z,3.20
2022-10-04T23:40:00.085Z,3.15
2022-10-04T23:45:27.939Z,5.45
2022-10-04T23:50:55.093Z,5.07
2022-10-04T23:56:23.016Z,5.03
